Observation data for Denver City on 07/03/2020      Previous  Date  Next       Current Mesonet Observations  Soil Data  Daily Summary Page  Observations in Plain Language
KDVS 030500Z 14008KT 26/14 A3006 RMK A01 T02560140  RH  051%=      5-min Rain = 0
KDVS 030505Z 13007KT 26/14 A3007 RMK A01 T02550140  RH  051%=      5-min Rain = 0
KDVS 030510Z 13007KT 25/14 A3007 RMK A01 T02540140  RH  051%=      5-min Rain = 0
KDVS 030515Z 13008KT 25/14 A3007 RMK A01 T02530140  RH  052%=      5-min Rain = 0
KDVS 030520Z 14008KT 25/14 A3007 RMK A01 T02520140  RH  052%=      5-min Rain = 0
KDVS 030525Z 15008KT 25/14 A3007 RMK A01 T02520140  RH  052%=      5-min Rain = 0
KDVS 030530Z 15007KT 25/14 A3007 RMK A01 T02510139  RH  052%=      5-min Rain = 0
KDVS 030535Z 14007KT 25/14 A3007 RMK A01 T02500139  RH  053%=      5-min Rain = 0
KDVS 030540Z 14007KT 25/14 A3007 RMK A01 T02480140  RH  053%=      5-min Rain = 0
KDVS 030545Z 15007KT 25/14 A3007 RMK A01 T02480141  RH  053%=      5-min Rain = 0
KDVS 030550Z 14007KT 25/14 A3007 RMK A01 T02460141  RH  054%=      5-min Rain = 0
KDVS 030555Z 14006KT 25/14 A3008 RMK A01 T02450141  RH  055%=      5-min Rain = 0
KDVS 030600Z 14007KT 24/14 A3008 RMK A01 T02440142  RH  055%=      5-min Rain = 0
KDVS 030605Z 15007KT 24/14 A3008 RMK A01 T02430142  RH  055%=      5-min Rain = 0
KDVS 030610Z 15006KT 24/14 A3008 RMK A01 T02420143  RH  056%=      5-min Rain = 0
KDVS 030615Z 16007KT 24/14 A3008 RMK A01 T02410143  RH  057%=      5-min Rain = 0
KDVS 030620Z 15006KT 24/14 A3008 RMK A01 T02410144  RH  057%=      5-min Rain = 0
KDVS 030625Z 14006KT 24/14 A3008 RMK A01 T02400144  RH  057%=      5-min Rain = 0
KDVS 030630Z 15007KT 24/15 A3008 RMK A01 T02400145  RH  058%=      5-min Rain = 0
KDVS 030635Z 16007KT 24/15 A3008 RMK A01 T02410145  RH  057%=      5-min Rain = 0
KDVS 030640Z 16006KT 24/15 A3008 RMK A01 T02420146  RH  057%=      5-min Rain = 0
KDVS 030645Z 15006KT 24/15 A3008 RMK A01 T02410146  RH  058%=      5-min Rain = 0
KDVS 030650Z 14005KT 24/15 A3008 RMK A01 T02390146  RH  058%=      5-min Rain = 0
KDVS 030655Z 13006KT 24/15 A3008 RMK A01 T02370147  RH  059%=      5-min Rain = 0
KDVS 030700Z 13005KT 24/15 A3008 RMK A01 T02350146  RH  060%=      5-min Rain = 0
KDVS 030705Z 13005KT 23/15 A3008 RMK A01 T02340146  RH  060%=      5-min Rain = 0
KDVS 030710Z 14005KT 23/15 A3008 RMK A01 T02330146  RH  061%=      5-min Rain = 0
KDVS 030715Z 14006KT 23/15 A3008 RMK A01 T02320146  RH  061%=      5-min Rain = 0
KDVS 030720Z 14007KT 23/15 A3007 RMK A01 T02320146  RH  061%=      5-min Rain = 0
KDVS 030725Z 15006KT 23/15 A3007 RMK A01 T02320147  RH  061%=      5-min Rain = 0
KDVS 030730Z 15006KT 23/15 A3007 RMK A01 T02310147  RH  062%=      5-min Rain = 0
KDVS 030735Z 15006KT 23/15 A3007 RMK A01 T02300147  RH  062%=      5-min Rain = 0
KDVS 030740Z 15006KT 23/15 A3007 RMK A01 T02290148  RH  063%=      5-min Rain = 0
KDVS 030745Z 16005KT 23/15 A3006 RMK A01 T02280148  RH  063%=      5-min Rain = 0
KDVS 030750Z 16004KT 23/15 A3007 RMK A01 T02280148  RH  063%=      5-min Rain = 0
KDVS 030755Z 17004KT 23/15 A3007 RMK A01 T02280148  RH  063%=      5-min Rain = 0
KDVS 030800Z 18004KT 23/15 A3007 RMK A01 T02280148  RH  064%=      5-min Rain = 0
KDVS 030805Z 18004KT 23/15 A3007 RMK A01 T02280148  RH  063%=      5-min Rain = 0
KDVS 030810Z 17003KT 23/15 A3007 RMK A01 T02280147  RH  063%=      5-min Rain = 0
KDVS 030815Z 17003KT 23/15 A3007 RMK A01 T02260146  RH  063%=      5-min Rain = 0
KDVS 030820Z 19003KT 23/15 A3006 RMK A01 T02260147  RH  064%=      5-min Rain = 0
KDVS 030825Z 18002KT 23/15 A3007 RMK A01 T02270146  RH  063%=      5-min Rain = 0
KDVS 030830Z 28001KT 23/14 A3007 RMK A01 T02250144  RH  063%=      5-min Rain = 0
KDVS 030835Z 32004KT 22/14 A3007 RMK A01 T02220144  RH  064%=      5-min Rain = 0
KDVS 030840Z 34004KT 22/14 A3007 RMK A01 T02220144  RH  064%=      5-min Rain = 0
KDVS 030845Z 35005KT 22/15 A3007 RMK A01 T02210145  RH  065%=      5-min Rain = 0
KDVS 030850Z 00004KT 22/15 A3007 RMK A01 T02200145  RH  066%=      5-min Rain = 0
KDVS 030855Z 01003KT 22/15 A3007 RMK A01 T02180147  RH  067%=      5-min Rain = 0
KDVS 030900Z 01001KT 22/15 A3006 RMK A01 T02160148  RH  068%=      5-min Rain = 0
KDVS 030905Z 13001KT 22/15 A3006 RMK A01 T02150148  RH  069%=      5-min Rain = 0
KDVS 030910Z 11002KT 22/15 A3006 RMK A01 T02150149  RH  069%=      5-min Rain = 0
KDVS 030915Z 05003KT 21/15 A3007 RMK A01 T02140147  RH  068%=      5-min Rain = 0
KDVS 030920Z 04003KT 21/15 A3006 RMK A01 T02110146  RH  069%=      5-min Rain = 0
KDVS 030925Z 04002KT 21/15 A3006 RMK A01 T02110146  RH  070%=      5-min Rain = 0
KDVS 030930Z 04000KT 21/15 A3006 RMK A01 T02120146  RH  069%=      5-min Rain = 0
KDVS 030935Z 04000KT 21/15 A3005 RMK A01 T02120146  RH  069%=      5-min Rain = 0
KDVS 030940Z 04001KT 21/15 A3005 RMK A01 T02120145  RH  068%=      5-min Rain = 0
KDVS 030945Z 04001KT 21/14 A3006 RMK A01 T02110144  RH  069%=      5-min Rain = 0
KDVS 030950Z 04002KT 21/14 A3006 RMK A01 T02090144  RH  069%=      5-min Rain = 0
KDVS 030955Z 02004KT 21/14 A3006 RMK A01 T02070142  RH  070%=      5-min Rain = 0
KDVS 031000Z 00005KT 21/14 A3007 RMK A01 T02050143  RH  071%=      5-min Rain = 0
KDVS 031005Z 01006KT 21/14 A3007 RMK A01 T02050142  RH  070%=      5-min Rain = 0
KDVS 031010Z 01007KT 20/14 A3007 RMK A01 T02040143  RH  071%=      5-min Rain = 0
KDVS 031015Z 00007KT 20/14 A3007 RMK A01 T02030144  RH  072%=      5-min Rain = 0
KDVS 031020Z 01007KT 20/14 A3008 RMK A01 T02030144  RH  072%=      5-min Rain = 0
KDVS 031025Z 00007KT 20/14 A3008 RMK A01 T02020143  RH  072%=      5-min Rain = 0
KDVS 031030Z 00006KT 20/14 A3008 RMK A01 T02030142  RH  071%=      5-min Rain = 0
KDVS 031035Z 36006KT 21/14 A3008 RMK A01 T02050142  RH  070%=      5-min Rain = 0
KDVS 031040Z 35006KT 21/14 A3008 RMK A01 T02060142  RH  070%=      5-min Rain = 0
KDVS 031045Z 00006KT 21/14 A3008 RMK A01 T02060142  RH  070%=      5-min Rain = 0
KDVS 031050Z 02006KT 20/14 A3008 RMK A01 T02040141  RH  070%=      5-min Rain = 0
KDVS 031055Z 02007KT 20/14 A3009 RMK A01 T02010139  RH  070%=      5-min Rain = 0
KDVS 031100Z 01007KT 20/14 A3009 RMK A01 T02010136  RH  069%=      5-min Rain = 0
KDVS 031105Z 02006KT 20/13 A3009 RMK A01 T02010134  RH  068%=      5-min Rain = 0
KDVS 031110Z 01005KT 20/13 A3009 RMK A01 T02020133  RH  067%=      5-min Rain = 0
KDVS 031115Z 02003KT 20/13 A3009 RMK A01 T02020132  RH  067%=      5-min Rain = 0
KDVS 031120Z 05004KT 20/13 A3009 RMK A01 T02010132  RH  067%=      5-min Rain = 0
KDVS 031125Z 06004KT 20/13 A3009 RMK A01 T02010132  RH  067%=      5-min Rain = 0
KDVS 031130Z 07004KT 20/13 A3009 RMK A01 T01990132  RH  068%=      5-min Rain = 0
KDVS 031135Z 08004KT 20/13 A3009 RMK A01 T01980132  RH  068%=      5-min Rain = 0
KDVS 031140Z 07003KT 20/13 A3009 RMK A01 T01970133  RH  069%=      5-min Rain = 0
KDVS 031145Z 05003KT 20/13 A3009 RMK A01 T01970133  RH  069%=      5-min Rain = 0
KDVS 031150Z 05003KT 20/13 A3009 RMK A01 T01970133  RH  069%=      5-min Rain = 0
KDVS 031155Z 08003KT 20/13 A3009 RMK A01 T01960131  RH  069%=      5-min Rain = 0
KDVS 031200Z 07005KT 19/13 A301 RMK A01 T01930132  RH  070%=      5-min Rain = 0
KDVS 031205Z 08005KT 19/13 A301 RMK A01 T01920131  RH  071%=      5-min Rain = 0
KDVS 031210Z 09005KT 19/13 A301 RMK A01 T01920131  RH  071%=      5-min Rain = 0
KDVS 031215Z 08004KT 19/13 A301 RMK A01 T01940132  RH  070%=      5-min Rain = 0
KDVS 031220Z 09003KT 20/13 A301 RMK A01 T01990133  RH  068%=      5-min Rain = 0
KDVS 031225Z 11003KT 20/13 A301 RMK A01 T02030133  RH  067%=      5-min Rain = 0
KDVS 031230Z 12003KT 20/13 A3009 RMK A01 T02040133  RH  066%=      5-min Rain = 0
KDVS 031235Z 14004KT 20/13 A3009 RMK A01 T02030133  RH  067%=      5-min Rain = 0
KDVS 031240Z 13004KT 20/13 A3009 RMK A01 T02020134  RH  068%=      5-min Rain = 0
KDVS 031245Z 13004KT 20/14 A3009 RMK A01 T02040135  RH  067%=      5-min Rain = 0
KDVS 031250Z 13004KT 21/14 A3009 RMK A01 T02060136  RH  067%=      5-min Rain = 0
KDVS 031255Z 11003KT 21/14 A3009 RMK A01 T02090136  RH  065%=      5-min Rain = 0
KDVS 031300Z 10002KT 22/14 A3009 RMK A01 T02160137  RH  064%=      5-min Rain = 0
KDVS 031305Z 12003KT 23/14 A3009 RMK A01 T02250137  RH  060%=      5-min Rain = 0
KDVS 031310Z 12005KT 23/14 A3009 RMK A01 T02290137  RH  058%=      5-min Rain = 0
KDVS 031315Z 11006KT 23/14 A301 RMK A01 T02310136  RH  057%=      5-min Rain = 0
KDVS 031320Z 12005KT 23/14 A301 RMK A01 T02330136  RH  057%=      5-min Rain = 0
KDVS 031325Z 13006KT 24/14 A301 RMK A01 T02350135  RH  056%=      5-min Rain = 0
KDVS 031330Z 13008KT 24/13 A301 RMK A01 T02390132  RH  053%=      5-min Rain = 0
KDVS 031335Z 12009KT 24/13 A301 RMK A01 T02430131  RH  051%=      5-min Rain = 0
KDVS 031340Z 13010KT 25/13 A301 RMK A01 T02480131  RH  050%=      5-min Rain = 0
KDVS 031345Z 14009KT 25/13 A301 RMK A01 T02510132  RH  050%=      5-min Rain = 0
KDVS 031350Z 14009KT 25/13 A301 RMK A01 T02520134  RH  050%=      5-min Rain = 0
KDVS 031355Z 14011KT 26/14 A301 RMK A01 T02570135  RH  049%=      5-min Rain = 0
KDVS 031400Z 15012KT 26/14 A301 RMK A01 T02580136  RH  049%=      5-min Rain = 0
KDVS 031405Z 15013KT 26/14 A301 RMK A01 T02590138  RH  049%=      5-min Rain = 0
KDVS 031410Z 14012KT 26/14 A301 RMK A01 T02610139  RH  049%=      5-min Rain = 0
KDVS 031415Z 14011KT 26/14 A3011 RMK A01 T02620140  RH  049%=      5-min Rain = 0
KDVS 031420Z 16011KT 26/14 A3011 RMK A01 T02630140  RH  049%=      5-min Rain = 0
KDVS 031425Z 15011KT 26/14 A3011 RMK A01 T02620140  RH  049%=      5-min Rain = 0
KDVS 031430Z 16011KT 27/14 A3011 RMK A01 T02650142  RH  049%=      5-min Rain = 0
KDVS 031435Z 15011G16KT 27/14 A3011 RMK A01 T02680142  RH  048%=      5-min Rain = 0
KDVS 031440Z 15011KT 27/14 A3012 RMK A01 T02670142  RH  048%=      5-min Rain = 0
KDVS 031445Z 15010KT 27/14 A3012 RMK A01 T02690142  RH  048%=      5-min Rain = 0
KDVS 031450Z 16009G15KT 27/14 A3012 RMK A01 T02690144  RH  048%=      5-min Rain = 0
KDVS 031455Z 16009KT 27/14 A3012 RMK A01 T02730143  RH  047%=      5-min Rain = 0
KDVS 031500Z 17010KT 27/14 A3011 RMK A01 T02740144  RH  047%=      5-min Rain = 0
KDVS 031505Z 18010KT 28/14 A3011 RMK A01 T02750144  RH  047%=      5-min Rain = 0
KDVS 031510Z 18010KT 27/15 A3011 RMK A01 T02740146  RH  048%=      5-min Rain = 0
KDVS 031515Z 17011KT 28/15 A3011 RMK A01 T02750146  RH  047%=      5-min Rain = 0
KDVS 031520Z 17009KT 28/15 A3012 RMK A01 T02760146  RH  047%=      5-min Rain = 0
KDVS 031525Z 15008KT 28/14 A3012 RMK A01 T02780144  RH  046%=      5-min Rain = 0
KDVS 031530Z 17008KT 28/14 A3012 RMK A01 T02820143  RH  044%=      5-min Rain = 0
KDVS 031535Z 17008KT 28/14 A3012 RMK A01 T02830143  RH  044%=      5-min Rain = 0
KDVS 031540Z 19009KT 28/14 A3011 RMK A01 T02830142  RH  044%=      5-min Rain = 0
KDVS 031545Z 18010KT 29/14 A3011 RMK A01 T02850140  RH  043%=      5-min Rain = 0
KDVS 031550Z 18008KT 29/14 A3012 RMK A01 T02870138  RH  042%=      5-min Rain = 0
KDVS 031555Z 17008KT 29/14 A3012 RMK A01 T02910137  RH  040%=      5-min Rain = 0
KDVS 031600Z 17009KT 29/13 A3012 RMK A01 T02940133  RH  039%=      5-min Rain = 0
KDVS 031605Z 16009KT 29/14 A3012 RMK A01 T02930139  RH  041%=      5-min Rain = 0
KDVS 031610Z 15009G15KT 30/14 A3012 RMK A01 T02990140  RH  039%=      5-min Rain = 0
KDVS 031615Z 13010KT 30/14 A3012 RMK A01 T02990139  RH  039%=      5-min Rain = 0
KDVS 031620Z 13009G14KT 30/14 A3012 RMK A01 T03010138  RH  039%=      5-min Rain = 0
KDVS 031625Z 13010KT 30/13 A3012 RMK A01 T03030132  RH  037%=      5-min Rain = 0
KDVS 031630Z 13008G13KT 30/13 A3012 RMK A01 T03010134  RH  037%=      5-min Rain = 0
KDVS 031635Z 15008G13KT 30/13 A3012 RMK A01 T03030134  RH  037%=      5-min Rain = 0
KDVS 031640Z 16008KT 31/13 A3012 RMK A01 T03070132  RH  036%=      5-min Rain = 0
KDVS 031645Z 15010KT 31/13 A3012 RMK A01 T03070131  RH  035%=      5-min Rain = 0
KDVS 031650Z 15008KT 31/13 A3012 RMK A01 T03060127  RH  035%=      5-min Rain = 0
KDVS 031655Z 15007KT 31/13 A3012 RMK A01 T03070128  RH  035%=      5-min Rain = 0
KDVS 031700Z 13010KT 31/12 A3012 RMK A01 T03090124  RH  033%=      5-min Rain = 0
KDVS 031705Z 13006G12KT 31/12 A3012 RMK A01 T03080121  RH  033%=      5-min Rain = 0
KDVS 031710Z 14008G14KT 31/12 A3012 RMK A01 T03130120  RH  032%=      5-min Rain = 0
KDVS 031715Z 13006G11KT 31/12 A3012 RMK A01 T03110121  RH  032%=      5-min Rain = 0
KDVS 031720Z 12008KT 31/12 A3012 RMK A01 T03140121  RH  032%=      5-min Rain = 0
KDVS 031725Z 12008KT 32/12 A3012 RMK A01 T03170124  RH  032%=      5-min Rain = 0
KDVS 031730Z 14011G16KT 32/12 A3012 RMK A01 T03190123  RH  031%=      5-min Rain = 0
KDVS 031735Z 14007G12KT 32/12 A3012 RMK A01 T03180123  RH  032%=      5-min Rain = 0
KDVS 031740Z 13009G15KT 32/12 A3012 RMK A01 T03220119  RH  030%=      5-min Rain = 0
KDVS 031745Z 14010G22KT 32/12 A3012 RMK A01 T03200120  RH  031%=      5-min Rain = 0
KDVS 031750Z 15011G18KT 32/12 A3012 RMK A01 T03230120  RH  030%=      5-min Rain = 0
KDVS 031755Z 15009G15KT 32/12 A3011 RMK A01 T03230121  RH  030%=      5-min Rain = 0
KDVS 031800Z 14008G14KT 32/12 A3011 RMK A01 T03220120  RH  030%=      5-min Rain = 0
KDVS 031805Z 12010KT 33/11 A3011 RMK A01 T03280107  RH  027%=      5-min Rain = 0
KDVS 031810Z 13010G16KT 33/11 A3011 RMK A01 T03280109  RH  027%=      5-min Rain = 0
KDVS 031815Z 12012G17KT 33/10 A3011 RMK A01 T03300103  RH  026%=      5-min Rain = 0
KDVS 031820Z 10009G14KT 33/09 A3011 RMK A01 T03270087  RH  023%=      5-min Rain = 0
KDVS 031825Z 10009G16KT 33/10 A301 RMK A01 T03290104  RH  026%=      5-min Rain = 0
KDVS 031830Z 11011G16KT 33/10 A301 RMK A01 T03340097  RH  024%=      5-min Rain = 0
KDVS 031835Z 13012G17KT 34/10 A301 RMK A01 T03350095  RH  024%=      5-min Rain = 0
KDVS 031840Z 13010KT 34/10 A301 RMK A01 T03360096  RH  024%=      5-min Rain = 0
KDVS 031845Z 14012G18KT 34/09 A301 RMK A01 T03360092  RH  023%=      5-min Rain = 0
KDVS 031850Z 14009G15KT 34/09 A301 RMK A01 T03370093  RH  023%=      5-min Rain = 0
KDVS 031855Z 11009G14KT 33/10 A301 RMK A01 T03340096  RH  024%=      5-min Rain = 0
KDVS 031900Z 12012KT 34/10 A3009 RMK A01 T03370101  RH  024%=      5-min Rain = 0
KDVS 031905Z 09010G16KT 34/10 A3009 RMK A01 T03360097  RH  024%=      5-min Rain = 0
KDVS 031910Z 12012G20KT 34/10 A3009 RMK A01 T03370100  RH  024%=      5-min Rain = 0
KDVS 031915Z 15009G14KT 34/10 A3009 RMK A01 T03370102  RH  025%=      5-min Rain = 0
KDVS 031920Z 11011G16KT 34/10 A3009 RMK A01 T03390098  RH  024%=      5-min Rain = 0
KDVS 031925Z 13012G26KT 34/10 A3008 RMK A01 T03410104  RH  024%=      5-min Rain = 0
KDVS 031930Z 14013G18KT 34/11 A3008 RMK A01 T03400106  RH  025%=      5-min Rain = 0
KDVS 031935Z 13011G18KT 34/11 A3008 RMK A01 T03380105  RH  025%=      5-min Rain = 0
KDVS 031940Z 13011G17KT 34/11 A3008 RMK A01 T03370112  RH  026%=      5-min Rain = 0
KDVS 031945Z 11012G19KT 34/11 A3007 RMK A01 T03390108  RH  025%=      5-min Rain = 0
KDVS 031950Z 12013G19KT 34/11 A3007 RMK A01 T03430108  RH  025%=      5-min Rain = 0
KDVS 031955Z 13011G19KT 34/11 A3007 RMK A01 T03430111  RH  025%=      5-min Rain = 0
KDVS 032000Z 11013KT 34/11 A3006 RMK A01 T03400109  RH  025%=      5-min Rain = 0
KDVS 032005Z 11012G19KT 35/11 A3006 RMK A01 T03460107  RH  024%=      5-min Rain = 0
KDVS 032010Z 12007G15KT 35/11 A3006 RMK A01 T03480111  RH  024%=      5-min Rain = 0
KDVS 032015Z 13011G17KT 35/11 A3006 RMK A01 T03480106  RH  024%=      5-min Rain = 0
KDVS 032020Z 12012G17KT 35/10 A3006 RMK A01 T03510103  RH  023%=      5-min Rain = 0
KDVS 032025Z 15012KT 35/11 A3006 RMK A01 T03530109  RH  024%=      5-min Rain = 0
KDVS 032030Z 15011G17KT 35/11 A3006 RMK A01 T03460109  RH  024%=      5-min Rain = 0
KDVS 032035Z 15014KT 35/11 A3006 RMK A01 T03500107  RH  024%=      5-min Rain = 0
KDVS 032040Z 15010G17KT 35/10 A3006 RMK A01 T03490104  RH  023%=      5-min Rain = 0
KDVS 032045Z 15012G17KT 35/11 A3006 RMK A01 T03480107  RH  024%=      5-min Rain = 0
KDVS 032050Z 14009G14KT 34/11 A3006 RMK A01 T03390105  RH  025%=      5-min Rain = 0
KDVS 032055Z 13010G16KT 34/10 A3006 RMK A01 T03390103  RH  024%=      5-min Rain = 0
KDVS 032100Z 14010KT 34/10 A3006 RMK A01 T03410103  RH  024%=      5-min Rain = 0
KDVS 032105Z 12011G19KT 34/11 A3006 RMK A01 T03360106  RH  025%=      5-min Rain = 0
KDVS 032110Z 14013KT 34/11 A3006 RMK A01 T03360105  RH  025%=      5-min Rain = 0
KDVS 032115Z 13010KT 33/10 A3006 RMK A01 T03340104  RH  025%=      5-min Rain = 0
KDVS 032120Z 13011G16KT 33/10 A3006 RMK A01 T03330103  RH  025%=      5-min Rain = 0
KDVS 032125Z 13009KT 33/10 A3006 RMK A01 T03340101  RH  025%=      5-min Rain = 0
KDVS 032130Z 13004KT 33/10 A3006 RMK A01 T03330100  RH  025%=      5-min Rain = 0
KDVS 032135Z 14007G12KT 33/10 A3006 RMK A01 T03340100  RH  025%=      5-min Rain = 0
KDVS 032140Z 15008KT 34/10 A3006 RMK A01 T03370100  RH  024%=      5-min Rain = 0
KDVS 032145Z 13008KT 34/10 A3006 RMK A01 T03360100  RH  024%=      5-min Rain = 0
KDVS 032150Z 11010KT 34/10 A3006 RMK A01 T03350099  RH  024%=      5-min Rain = 0
KDVS 032155Z 13008KT 33/10 A3005 RMK A01 T03340099  RH  024%=      5-min Rain = 0
KDVS 032200Z 12009G14KT 34/10 A3005 RMK A01 T03360098  RH  024%=      5-min Rain = 0
KDVS 032205Z 15006G11KT 34/10 A3005 RMK A01 T03360097  RH  024%=      5-min Rain = 0
KDVS 032210Z 16007KT 34/10 A3005 RMK A01 T03370095  RH  023%=      5-min Rain = 0
KDVS 032215Z 13006KT 34/09 A3004 RMK A01 T03410094  RH  023%=      5-min Rain = 0
KDVS 032220Z 18005KT 34/09 A3004 RMK A01 T03440094  RH  022%=      5-min Rain = 0
KDVS 032225Z 13006G14KT 35/09 A3004 RMK A01 T03490094  RH  022%=      5-min Rain = 0
KDVS 032230Z 11010KT 35/09 A3003 RMK A01 T03460093  RH  022%=      5-min Rain = 0
KDVS 032235Z 09006KT 34/09 A3003 RMK A01 T03400093  RH  023%=      5-min Rain = 0
KDVS 032240Z 16006G11KT 34/09 A3003 RMK A01 T03410091  RH  022%=      5-min Rain = 0
KDVS 032245Z 13008G13KT 34/09 A3003 RMK A01 T03440090  RH  022%=      5-min Rain = 0
KDVS 032250Z 12005KT 34/09 A3003 RMK A01 T03410090  RH  022%=      5-min Rain = 0
KDVS 032255Z 14009G15KT 34/09 A3003 RMK A01 T03420089  RH  022%=      5-min Rain = 0
KDVS 032300Z 15006KT 34/09 A3003 RMK A01 T03410089  RH  022%=      5-min Rain = 0
KDVS 032305Z 14005G10KT 34/09 A3003 RMK A01 T03400089  RH  022%=      5-min Rain = 0
KDVS 032310Z 11009G17KT 34/09 A3002 RMK A01 T03430088  RH  022%=      5-min Rain = 0
KDVS 032315Z 12010G15KT 35/09 A3002 RMK A01 T03480086  RH  021%=      5-min Rain = 0
KDVS 032320Z 11008KT 35/09 A3002 RMK A01 T03490085  RH  020%=      5-min Rain = 0
KDVS 032325Z 15007G12KT 35/08 A3001 RMK A01 T03510084  RH  020%=      5-min Rain = 0
KDVS 032330Z 12006G13KT 35/08 A3001 RMK A01 T03500083  RH  020%=      5-min Rain = 0
KDVS 032335Z 13010G15KT 35/08 A3001 RMK A01 T03510083  RH  020%=      5-min Rain = 0
KDVS 032340Z 11006KT 35/08 A3001 RMK A01 T03500082  RH  020%=      5-min Rain = 0
KDVS 032345Z 16011KT 35/08 A30 RMK A01 T03500081  RH  020%=      5-min Rain = 0
KDVS 032350Z 13010KT 35/08 A3001 RMK A01 T03480079  RH  020%=      5-min Rain = 0
KDVS 032355Z 11012G17KT 35/08 A3001 RMK A01 T03470077  RH  020%=      5-min Rain = 0
KDVS 040000Z 10009G14KT 35/08 A3001 RMK A01 T03450077  RH  020%=      5-min Rain = 0
KDVS 040005Z 13010KT 34/08 A3001 RMK A01 T03430077  RH  020%=      5-min Rain = 0
KDVS 040010Z 14010G15KT 34/08 A3001 RMK A01 T03380077  RH  020%=      5-min Rain = 0
KDVS 040015Z 12010G15KT 34/08 A3001 RMK A01 T03370076  RH  021%=      5-min Rain = 0
KDVS 040020Z 12008KT 33/08 A3001 RMK A01 T03340077  RH  021%=      5-min Rain = 0
KDVS 040025Z 11006G11KT 33/08 A3002 RMK A01 T03330077  RH  021%=      5-min Rain = 0
KDVS 040030Z 12009KT 34/08 A3002 RMK A01 T03350075  RH  021%=      5-min Rain = 0
KDVS 040035Z 13009KT 34/07 A3002 RMK A01 T03370074  RH  020%=      5-min Rain = 0
KDVS 040040Z 13008KT 34/07 A3002 RMK A01 T03350074  RH  020%=      5-min Rain = 0
KDVS 040045Z 11009KT 33/07 A3002 RMK A01 T03340073  RH  020%=      5-min Rain = 0
KDVS 040050Z 12008G14KT 33/07 A3002 RMK A01 T03340073  RH  020%=      5-min Rain = 0
KDVS 040055Z 12010KT 33/07 A3002 RMK A01 T03340072  RH  020%=      5-min Rain = 0
KDVS 040100Z 12010KT 33/07 A3003 RMK A01 T03330072  RH  020%=      5-min Rain = 0
KDVS 040105Z 11010KT 33/07 A3002 RMK A01 T03330072  RH  020%=      5-min Rain = 0
KDVS 040110Z 10011KT 33/07 A3002 RMK A01 T03310072  RH  021%=      5-min Rain = 0
KDVS 040115Z 10011G16KT 33/07 A3002 RMK A01 T03290073  RH  021%=      5-min Rain = 0
KDVS 040120Z 10012KT 33/07 A3002 RMK A01 T03280072  RH  021%=      5-min Rain = 0
KDVS 040125Z 11012KT 33/07 A3003 RMK A01 T03260072  RH  021%=      5-min Rain = 0
KDVS 040130Z 11011KT 33/07 A3002 RMK A01 T03250073  RH  021%=      5-min Rain = 0
KDVS 040135Z 11010KT 32/07 A3003 RMK A01 T03240073  RH  022%=      5-min Rain = 0
KDVS 040140Z 11012KT 32/07 A3003 RMK A01 T03230074  RH  022%=      5-min Rain = 0
KDVS 040145Z 11010KT 32/07 A3003 RMK A01 T03210074  RH  022%=      5-min Rain = 0
KDVS 040150Z 10010KT 32/08 A3003 RMK A01 T03190075  RH  022%=      5-min Rain = 0
KDVS 040155Z 10010KT 32/08 A3003 RMK A01 T03180075  RH  023%=      5-min Rain = 0
KDVS 040200Z 11010KT 32/08 A3003 RMK A01 T03170075  RH  023%=      5-min Rain = 0
KDVS 040205Z 11010KT 32/08 A3004 RMK A01 T03160075  RH  023%=      5-min Rain = 0
KDVS 040210Z 11010KT 32/08 A3004 RMK A01 T03150075  RH  023%=      5-min Rain = 0
KDVS 040215Z 11010KT 31/08 A3004 RMK A01 T03140075  RH  023%=      5-min Rain = 0
KDVS 040220Z 10009KT 31/08 A3004 RMK A01 T03120076  RH  024%=      5-min Rain = 0
KDVS 040225Z 11010KT 31/08 A3004 RMK A01 T03100076  RH  024%=      5-min Rain = 0
KDVS 040230Z 11011KT 31/08 A3004 RMK A01 T03100077  RH  024%=      5-min Rain = 0
KDVS 040235Z 11010KT 31/08 A3004 RMK A01 T03090078  RH  024%=      5-min Rain = 0
KDVS 040240Z 11009KT 31/08 A3004 RMK A01 T03080078  RH  025%=      5-min Rain = 0
KDVS 040245Z 11009KT 31/08 A3004 RMK A01 T03060079  RH  025%=      5-min Rain = 0
KDVS 040250Z 11009KT 30/08 A3005 RMK A01 T03040079  RH  025%=      5-min Rain = 0
KDVS 040255Z 11009KT 30/08 A3005 RMK A01 T03030080  RH  025%=      5-min Rain = 0
KDVS 040300Z 11009KT 30/08 A3005 RMK A01 T03020080  RH  026%=      5-min Rain = 0
KDVS 040305Z 11009KT 30/08 A3005 RMK A01 T03010080  RH  026%=      5-min Rain = 0
KDVS 040310Z 11010KT 30/08 A3006 RMK A01 T03000080  RH  026%=      5-min Rain = 0
KDVS 040315Z 11011KT 30/08 A3006 RMK A01 T02990080  RH  026%=      5-min Rain = 0
KDVS 040320Z 11010KT 30/08 A3006 RMK A01 T02980081  RH  026%=      5-min Rain = 0
KDVS 040325Z 11010KT 30/08 A3006 RMK A01 T02970081  RH  027%=      5-min Rain = 0
KDVS 040330Z 11010KT 30/08 A3007 RMK A01 T02960081  RH  027%=      5-min Rain = 0
KDVS 040335Z 11011KT 30/08 A3007 RMK A01 T02960080  RH  027%=      5-min Rain = 0
KDVS 040340Z 11012KT 30/08 A3007 RMK A01 T02950080  RH  027%=      5-min Rain = 0
KDVS 040345Z 11011KT 30/08 A3007 RMK A01 T02950080  RH  027%=      5-min Rain = 0
KDVS 040350Z 11011KT 29/08 A3007 RMK A01 T02930080  RH  027%=      5-min Rain = 0
KDVS 040355Z 11011KT 29/08 A3007 RMK A01 T02930080  RH  027%=      5-min Rain = 0
KDVS 040400Z 11011KT 29/08 A3008 RMK A01 T02920080  RH  027%=      5-min Rain = 0
KDVS 040405Z 12012KT 29/08 A3008 RMK A01 T02920080  RH  027%=      5-min Rain = 0
KDVS 040410Z 12011KT 29/08 A3008 RMK A01 T02910080  RH  027%=      5-min Rain = 0
KDVS 040415Z 12012KT 29/08 A3008 RMK A01 T02900080  RH  028%=      5-min Rain = 0
KDVS 040420Z 12011KT 29/08 A3008 RMK A01 T02890081  RH  028%=      5-min Rain = 0
KDVS 040425Z 12011KT 29/08 A3009 RMK A01 T02880082  RH  028%=      5-min Rain = 0
KDVS 040430Z 12010G15KT 29/08 A3009 RMK A01 T02880083  RH  028%=      5-min Rain = 0
KDVS 040435Z 11011KT 29/08 A3009 RMK A01 T02880084  RH  029%=      5-min Rain = 0
KDVS 040440Z 11009KT 29/08 A3009 RMK A01 T02870084  RH  029%=      5-min Rain = 0
KDVS 040445Z 12011G17KT 29/08 A3009 RMK A01 T02860084  RH  029%=      5-min Rain = 0
KDVS 040450Z 12011KT 29/09 A3009 RMK A01 T02860085  RH  029%=      5-min Rain = 0
KDVS 040455Z 11009KT 28/09 A3009 RMK A01 T02830085  RH  030%=      5-min Rain = 0

Page generated in 0.0095 seconds.